Time;durP1;ratioP1;P1;durP2;ratioP2;P2;SDS_P1;SDS_P2;PMS_P1;PMS_P2;Temp;Humidity;BMP_temperature;BMP_pressure;BME280_temperature;BME280_humidity;BME280_pressure;Samples;Min_cycle;Max_cycle;Signal;HPM_P1;HPM_P2
2022/08/01 00:00:12;;;;;;;4.90;1.63;;;;;;;;;;5008398;28;20109;-76
2022/08/01 00:02:38;;;;;;;3.08;1.73;;;;;;;;;;5008471;28;20509;-76
2022/08/01 00:05:07;;;;;;;3.67;1.50;;;;;;;;;;5008428;28;20724;-77
2022/08/01 00:07:37;;;;;;;2.10;1.40;;;;;;;;;;5008316;28;20022;-77
2022/08/01 00:10:11;;;;;;;4.43;1.50;;;;;;;;;;5008166;28;20022;-76
2022/08/01 00:12:36;;;;;;;2.47;1.40;;;;;;;;;;5008287;28;20112;-75
2022/08/01 00:15:03;;;;;;;1.85;1.40;;;;;;;;;;5008445;28;20117;-75
2022/08/01 00:17:29;;;;;;;2.92;1.50;;;;;;;;;;5008396;28;20046;-75
2022/08/01 00:19:54;;;;;;;5.30;1.70;;;;;;;;;;5008234;28;20437;-75
2022/08/01 00:22:19;;;;;;;3.30;1.63;;;;;;;;;;5008122;28;20026;-75
2022/08/01 00:24:45;;;;;;;3.70;1.80;;;;;;;;;;5008077;28;20026;-76
2022/08/01 00:27:10;;;;;;;2.75;1.85;;;;;;;;;;5008096;28;20509;-75
2022/08/01 00:29:36;;;;;;;3.60;1.80;;;;;;;;;;5007865;28;20099;-75
2022/08/01 00:32:01;;;;;;;3.53;2.00;;;;;;;;;;5008032;28;20057;-75
2022/08/01 00:34:26;;;;;;;3.30;2.00;;;;;;;;;;5008043;28;20045;-76
2022/08/01 00:36:52;;;;;;;4.45;1.75;;;;;;;;;;5007902;28;20030;-76
2022/08/01 00:39:17;;;;;;;2.70;2.00;;;;;;;;;;5007963;28;20034;-75
2022/08/01 00:41:42;;;;;;;4.43;1.90;;;;;;;;;;5007582;28;20048;-76
2022/08/01 00:44:08;;;;;;;3.05;1.73;;;;;;;;;;5006507;28;20030;-76
2022/08/01 00:46:33;;;;;;;3.58;1.90;;;;;;;;;;5007805;28;20512;-76
2022/08/01 00:48:59;;;;;;;3.83;2.03;;;;;;;;;;5007682;28;20030;-75
2022/08/01 00:51:26;;;;;;;4.70;2.10;;;;;;;;;;5007576;28;20030;-74
2022/08/01 00:53:52;;;;;;;2.95;2.10;;;;;;;;;;5007736;28;20038;-75
2022/08/01 00:56:20;;;;;;;2.53;1.70;;;;;;;;;;5006449;28;20037;-75
2022/08/01 00:58:45;;;;;;;4.80;2.10;;;;;;;;;;5006949;28;20018;-75
2022/08/01 01:01:11;;;;;;;3.38;2.03;;;;;;;;;;5007304;28;20100;-76
2022/08/01 01:03:36;;;;;;;4.53;2.10;;;;;;;;;;5007379;28;20133;-76
2022/08/01 01:06:39;;;;;;;3.20;2.10;;;;;;;;;;5007631;28;20028;-75
2022/08/01 01:09:30;;;;;;;4.53;2.30;;;;;;;;;;5007632;28;20034;-75
2022/08/01 01:12:23;;;;;;;4.50;2.10;;;;;;;;;;5007323;28;20022;-76
2022/08/01 01:14:54;;;;;;;4.43;2.20;;;;;;;;;;5007339;28;20038;-74
2022/08/01 01:17:28;;;;;;;3.38;2.03;;;;;;;;;;5007198;28;20018;-75
2022/08/01 01:19:57;;;;;;;4.28;2.00;;;;;;;;;;5007722;28;20048;-75
2022/08/01 01:22:53;;;;;;;4.10;2.30;;;;;;;;;;5007446;28;20073;-75
2022/08/01 01:25:37;;;;;;;3.45;1.98;;;;;;;;;;5007411;28;20030;-75
2022/08/01 01:28:20;;;;;;;4.70;2.53;;;;;;;;;;5007510;28;20030;-75
2022/08/01 01:30:50;;;;;;;3.65;2.00;;;;;;;;;;5007024;28;20037;-74
2022/08/01 01:33:17;;;;;;;3.13;2.08;;;;;;;;;;5007235;28;20030;-74
2022/08/01 01:35:47;;;;;;;4.18;2.33;;;;;;;;;;5007095;28;20053;-75
2022/08/01 01:38:20;;;;;;;3.22;2.10;;;;;;;;;;5007015;28;20087;-75
2022/08/01 01:40:48;;;;;;;5.43;2.33;;;;;;;;;;5007166;28;20038;-75
2022/08/01 01:43:15;;;;;;;4.78;2.20;;;;;;;;;;5007700;28;20022;-74
2022/08/01 01:45:42;;;;;;;4.15;2.35;;;;;;;;;;5007301;28;20080;-76
2022/08/01 01:48:09;;;;;;;3.55;1.90;;;;;;;;;;5007053;28;20636;-75
2022/08/01 01:50:36;;;;;;;3.75;2.30;;;;;;;;;;5006784;28;20063;-75
2022/08/01 01:53:03;;;;;;;6.80;2.42;;;;;;;;;;5006700;28;20511;-76
2022/08/01 01:55:30;;;;;;;5.20;2.17;;;;;;;;;;5007070;28;20026;-75
2022/08/01 01:57:57;;;;;;;4.20;2.20;;;;;;;;;;5007073;28;20026;-76
2022/08/01 02:00:24;;;;;;;4.55;2.10;;;;;;;;;;5005707;28;20048;-74
2022/08/01 02:02:52;;;;;;;4.50;2.30;;;;;;;;;;5005526;28;20414;-75
2022/08/01 02:05:18;;;;;;;3.63;2.35;;;;;;;;;;5007137;28;20115;-74
2022/08/01 02:07:45;;;;;;;5.22;2.30;;;;;;;;;;5006681;28;20611;-74
2022/08/01 02:10:11;;;;;;;5.50;2.10;;;;;;;;;;5008251;28;20470;-74
2022/08/01 02:12:40;;;;;;;3.72;2.20;;;;;;;;;;5009946;28;20026;-75
2022/08/01 02:15:09;;;;;;;4.05;2.25;;;;;;;;;;5010118;28;20022;-75
2022/08/01 02:17:42;;;;;;;3.80;2.00;;;;;;;;;;5010084;28;20045;-75
2022/08/01 02:20:09;;;;;;;4.80;2.00;;;;;;;;;;5010292;28;20026;-77
2022/08/01 02:22:41;;;;;;;5.47;2.10;;;;;;;;;;5009725;28;20058;-76
2022/08/01 02:25:15;;;;;;;4.28;2.28;;;;;;;;;;5009965;28;20532;-77
2022/08/01 02:27:45;;;;;;;4.65;2.10;;;;;;;;;;5009863;28;20157;-76
2022/08/01 02:30:13;;;;;;;;;;;;;;;;;;5010136;28;20041;-77
2022/08/01 02:33:02;;;;;;;4.03;2.30;;;;;;;;;;5009809;28;19913;-77
2022/08/01 02:35:31;;;;;;;4.88;2.20;;;;;;;;;;5010010;28;20063;-77
2022/08/01 02:37:58;;;;;;;4.70;2.00;;;;;;;;;;5009740;28;20030;-77
2022/08/01 02:40:31;;;;;;;4.13;2.15;;;;;;;;;;5009874;28;20029;-77
2022/08/01 02:42:58;;;;;;;3.40;2.00;;;;;;;;;;5009671;28;20072;-78
2022/08/01 02:45:26;;;;;;;6.60;1.95;;;;;;;;;;5009600;28;20090;-78
2022/08/01 02:47:57;;;;;;;5.47;2.00;;;;;;;;;;5009634;28;20143;-77
2022/08/01 02:50:24;;;;;;;6.30;2.42;;;;;;;;;;5009540;28;20105;-78
2022/08/01 02:52:51;;;;;;;2.75;2.00;;;;;;;;;;5009462;28;20022;-77
2022/08/01 02:55:19;;;;;;;4.55;2.10;;;;;;;;;;5009593;28;20046;-77
2022/08/01 02:57:47;;;;;;;3.00;2.05;;;;;;;;;;5009907;28;20389;-78
2022/08/01 03:00:14;;;;;;;2.85;1.80;;;;;;;;;;5009513;28;20100;-77
2022/08/01 03:02:43;;;;;;;4.60;2.42;;;;;;;;;;5007711;28;20022;-77
2022/08/01 03:05:11;;;;;;;4.53;2.35;;;;;;;;;;5009379;28;20029;-77
2022/08/01 03:07:38;;;;;;;5.40;2.10;;;;;;;;;;5009173;28;20054;-77
2022/08/01 03:10:05;;;;;;;3.20;2.10;;;;;;;;;;5008193;28;20113;-76
2022/08/01 03:12:33;;;;;;;3.90;2.10;;;;;;;;;;5009296;28;20030;-77
2022/08/01 03:15:00;;;;;;;3.85;2.10;;;;;;;;;;5009038;28;20450;-76
2022/08/01 03:17:28;;;;;;;6.20;2.10;;;;;;;;;;5009268;28;20061;-76
2022/08/01 03:19:55;;;;;;;3.72;2.30;;;;;;;;;;5009095;28;20085;-77
2022/08/01 03:22:24;;;;;;;3.60;2.10;;;;;;;;;;5008233;28;20037;-77
2022/08/01 03:24:52;;;;;;;3.75;2.10;;;;;;;;;;5009232;28;20026;-76
2022/08/01 03:27:20;;;;;;;3.17;2.03;;;;;;;;;;5009355;28;20040;-75
2022/08/01 03:29:48;;;;;;;4.45;2.20;;;;;;;;;;5009110;28;20026;-74
2022/08/01 03:32:16;;;;;;;4.30;1.90;;;;;;;;;;5009149;28;20485;-75
2022/08/01 03:34:42;;;;;;;6.40;2.10;;;;;;;;;;5009061;28;20041;-76
2022/08/01 03:37:19;;;;;;;4.32;2.30;;;;;;;;;;5008762;28;20030;-77
2022/08/01 03:39:54;;;;;;;4.47;2.20;;;;;;;;;;5008948;28;20026;-77
2022/08/01 03:42:26;;;;;;;3.55;2.00;;;;;;;;;;5008672;28;20026;-76
2022/08/01 03:44:58;;;;;;;4.00;2.15;;;;;;;;;;5008978;28;20395;-76
2022/08/01 03:47:29;;;;;;;3.15;2.17;;;;;;;;;;5008751;28;20054;-77
2022/08/01 03:49:56;;;;;;;;;;;;;;;;;;5009260;28;20545;-76
2022/08/01 03:52:22;;;;;;;2.90;1.92;;;;;;;;;;5008400;28;19953;-76
2022/08/01 03:54:51;;;;;;;2.72;2.00;;;;;;;;;;5008614;28;20037;-77
2022/08/01 03:57:17;;;;;;;5.07;2.17;;;;;;;;;;5008588;28;20025;-77
2022/08/01 03:59:43;;;;;;;5.38;2.15;;;;;;;;;;5008470;28;20359;-75
2022/08/01 04:02:09;;;;;;;6.18;2.40;;;;;;;;;;5008506;28;20084;-75
2022/08/01 04:04:35;;;;;;;4.38;2.00;;;;;;;;;;5008426;28;20030;-75
2022/08/01 04:07:06;;;;;;;4.57;2.17;;;;;;;;;;5008384;28;20251;-77
2022/08/01 04:09:32;;;;;;;2.95;2.03;;;;;;;;;;5007221;28;20530;-76
2022/08/01 04:12:01;;;;;;;5.72;2.15;;;;;;;;;;5008090;28;20664;-75
2022/08/01 04:14:28;;;;;;;4.20;2.00;;;;;;;;;;5008057;28;20129;-76
2022/08/01 04:16:54;;;;;;;4.45;2.28;;;;;;;;;;5008343;28;20022;-75
2022/08/01 04:19:19;;;;;;;3.47;2.00;;;;;;;;;;5008435;28;20026;-75
2022/08/01 04:21:45;;;;;;;5.32;2.10;;;;;;;;;;5008154;28;20646;-75
2022/08/01 04:24:16;;;;;;;3.03;1.85;;;;;;;;;;5008243;28;20034;-76
2022/08/01 04:26:43;;;;;;;;;;;;;;;;;;5008484;28;20503;-77
2022/08/01 04:29:10;;;;;;;8.00;2.40;;;;;;;;;;5007905;28;19917;-76
2022/08/01 04:31:39;;;;;;;4.63;2.10;;;;;;;;;;5008090;28;20025;-76
2022/08/01 04:34:06;;;;;;;4.22;2.05;;;;;;;;;;5006953;28;20038;-75
2022/08/01 04:36:34;;;;;;;5.18;2.10;;;;;;;;;;5007905;28;20030;-76
2022/08/01 04:39:01;;;;;;;6.43;1.90;;;;;;;;;;5008103;28;20030;-76
2022/08/01 04:41:29;;;;;;;4.22;1.92;;;;;;;;;;5007940;28;20034;-75
2022/08/01 04:43:55;;;;;;;4.18;2.15;;;;;;;;;;5007670;28;20366;-75
2022/08/01 04:46:22;;;;;;;5.05;2.03;;;;;;;;;;5007780;28;20037;-75
2022/08/01 04:48:48;;;;;;;3.72;2.03;;;;;;;;;;5007748;28;20033;-76
2022/08/01 04:51:17;;;;;;;4.32;2.10;;;;;;;;;;5007558;28;20030;-76
2022/08/01 04:53:45;;;;;;;4.90;2.27;;;;;;;;;;5006304;28;20120;-75
2022/08/01 04:56:12;;;;;;;3.80;2.10;;;;;;;;;;5007781;28;20394;-74
2022/08/01 04:58:42;;;;;;;4.78;2.10;;;;;;;;;;5007867;28;20022;-75
2022/08/01 05:01:07;;;;;;;5.47;1.77;;;;;;;;;;5007766;28;20626;-74
2022/08/01 05:03:33;;;;;;;5.20;2.28;;;;;;;;;;5007205;28;20046;-77
2022/08/01 05:05:58;;;;;;;7.18;2.20;;;;;;;;;;5007320;28;20030;-75
2022/08/01 05:08:24;;;;;;;6.00;2.38;;;;;;;;;;5007483;28;20029;-74
2022/08/01 05:10:50;;;;;;;5.82;2.22;;;;;;;;;;5007672;28;20042;-74
2022/08/01 05:13:15;;;;;;;4.80;2.10;;;;;;;;;;5007372;28;20041;-74
2022/08/01 05:15:40;;;;;;;4.78;2.10;;;;;;;;;;5007604;28;20618;-76
2022/08/01 05:18:06;;;;;;;4.72;1.98;;;;;;;;;;5007613;28;20420;-75
2022/08/01 05:20:32;;;;;;;5.20;2.30;;;;;;;;;;5007341;28;20466;-75
2022/08/01 05:22:57;;;;;;;4.50;2.25;;;;;;;;;;5007061;28;20113;-75
2022/08/01 05:25:23;;;;;;;4.80;2.17;;;;;;;;;;5007137;28;20053;-75
2022/08/01 05:27:49;;;;;;;4.65;2.40;;;;;;;;;;5007349;28;20038;-75
2022/08/01 05:30:15;;;;;;;5.65;2.40;;;;;;;;;;5007326;28;20570;-75
2022/08/01 05:32:40;;;;;;;6.10;2.38;;;;;;;;;;5005908;28;20029;-75
2022/08/01 05:35:07;;;;;;;7.18;2.45;;;;;;;;;;5007294;28;20505;-75
2022/08/01 05:37:32;;;;;;;5.22;2.50;;;;;;;;;;5006874;28;20540;-74
2022/08/01 05:39:58;;;;;;;5.45;2.60;;;;;;;;;;5005874;28;20053;-75
2022/08/01 05:42:23;;;;;;;8.30;2.90;;;;;;;;;;5006987;28;20482;-74
2022/08/01 05:44:50;;;;;;;5.18;2.40;;;;;;;;;;5008178;28;20026;-75
2022/08/01 05:47:17;;;;;;;4.90;2.60;;;;;;;;;;5010909;28;20102;-74
2022/08/01 05:49:43;;;;;;;5.55;2.58;;;;;;;;;;5010702;28;20030;-75
2022/08/01 05:52:09;;;;;;;4.85;2.70;;;;;;;;;;5010224;28;20033;-75
2022/08/01 05:54:34;;;;;;;6.32;3.10;;;;;;;;;;5010363;28;20162;-75
2022/08/01 05:57:01;;;;;;;8.43;3.00;;;;;;;;;;5010418;28;20026;-75
2022/08/01 05:59:30;;;;;;;8.52;3.00;;;;;;;;;;5010421;28;20473;-75
2022/08/01 06:01:56;;;;;;;7.57;3.05;;;;;;;;;;5010414;28;20039;-74
2022/08/01 06:04:21;;;;;;;7.07;3.17;;;;;;;;;;5010075;28;20041;-74
2022/08/01 06:06:47;;;;;;;4.80;3.08;;;;;;;;;;5010366;28;20632;-75
2022/08/01 06:09:12;;;;;;;6.40;3.20;;;;;;;;;;5010543;28;20458;-75
2022/08/01 06:11:37;;;;;;;7.78;3.47;;;;;;;;;;5010264;28;20128;-76
2022/08/01 06:14:03;;;;;;;7.53;3.67;;;;;;;;;;5009813;28;20075;-75
2022/08/01 06:16:29;;;;;;;5.85;3.03;;;;;;;;;;5010075;28;20093;-75
2022/08/01 06:18:54;;;;;;;9.90;3.67;;;;;;;;;;5010244;28;20026;-78
2022/08/01 06:21:20;;;;;;;5.72;3.28;;;;;;;;;;5009913;28;20486;-78
2022/08/01 06:23:45;;;;;;;8.18;3.60;;;;;;;;;;5009826;28;20456;-78
2022/08/01 06:26:11;;;;;;;7.25;3.70;;;;;;;;;;5010063;28;20022;-78
2022/08/01 06:28:37;;;;;;;8.48;3.60;;;;;;;;;;5008898;28;20025;-78
2022/08/01 06:31:02;;;;;;;10.00;3.80;;;;;;;;;;5009695;28;20049;-78
2022/08/01 06:33:28;;;;;;;7.10;3.75;;;;;;;;;;5009606;28;20638;-77
2022/08/01 06:35:53;;;;;;;12.25;3.97;;;;;;;;;;5009712;28;20025;-77
2022/08/01 06:38:19;;;;;;;7.20;3.72;;;;;;;;;;5009689;28;20627;-78
2022/08/01 06:40:45;;;;;;;9.23;3.80;;;;;;;;;;5009908;28;20114;-75
2022/08/01 06:43:13;;;;;;;9.13;4.07;;;;;;;;;;5009537;28;20030;-77
2022/08/01 06:45:40;;;;;;;6.97;3.95;;;;;;;;;;5009779;28;20026;-76
2022/08/01 06:48:05;;;;;;;8.85;4.35;;;;;;;;;;5009592;28;20030;-75
2022/08/01 06:50:32;;;;;;;8.68;4.05;;;;;;;;;;5009358;28;20029;-77
2022/08/01 06:52:57;;;;;;;8.68;4.28;;;;;;;;;;5009261;28;20018;-76
2022/08/01 06:55:23;;;;;;;6.65;4.10;;;;;;;;;;5009441;28;20033;-77
2022/08/01 06:57:52;;;;;;;7.18;4.22;;;;;;;;;;5008632;28;20022;-78
2022/08/01 07:00:23;;;;;;;9.73;4.43;;;;;;;;;;5009602;28;20516;-76
2022/08/01 07:02:52;;;;;;;;;;;;;;;;;;5009578;28;20711;-77
2022/08/01 07:05:17;;;;;;;6.35;4.00;;;;;;;;;;5009345;28;20443;-77
2022/08/01 07:07:44;;;;;;;8.57;4.40;;;;;;;;;;5009073;28;20046;-78
2022/08/01 07:10:09;;;;;;;11.43;4.60;;;;;;;;;;5009298;28;20079;-76
2022/08/01 07:12:37;;;;;;;8.57;4.30;;;;;;;;;;5009204;28;20057;-77
2022/08/01 07:15:04;;;;;;;6.70;4.40;;;;;;;;;;5009227;28;20379;-78
2022/08/01 07:17:30;;;;;;;9.00;4.50;;;;;;;;;;5009366;28;20026;-76
2022/08/01 07:19:55;;;;;;;8.15;4.03;;;;;;;;;;5009331;28;20458;-79
2022/08/01 07:22:21;;;;;;;6.00;4.10;;;;;;;;;;5009162;28;20026;-77
2022/08/01 07:24:46;;;;;;;8.50;4.22;;;;;;;;;;5008778;28;20026;-78
2022/08/01 07:27:12;;;;;;;7.03;3.70;;;;;;;;;;5009010;28;20518;-77
2022/08/01 07:29:37;;;;;;;7.85;4.18;;;;;;;;;;5009052;28;20026;-78
2022/08/01 07:32:03;;;;;;;6.68;3.90;;;;;;;;;;5008880;28;20064;-77
2022/08/01 07:34:28;;;;;;;7.80;4.20;;;;;;;;;;5008952;28;20030;-77
2022/08/01 07:36:53;;;;;;;6.57;3.78;;;;;;;;;;5008966;28;20034;-78
2022/08/01 07:39:19;;;;;;;7.93;4.03;;;;;;;;;;5008944;28;20104;-77
2022/08/01 07:41:45;;;;;;;7.60;4.18;;;;;;;;;;5009002;28;20033;-78
2022/08/01 07:44:10;;;;;;;9.93;4.30;;;;;;;;;;5008723;28;20105;-77
2022/08/01 07:46:36;;;;;;;6.50;3.72;;;;;;;;;;5008666;28;20030;-78
2022/08/01 07:49:01;;;;;;;8.43;3.70;;;;;;;;;;5008787;28;20026;-76
2022/08/01 07:51:27;;;;;;;6.18;3.53;;;;;;;;;;5008444;28;20040;-77
2022/08/01 07:53:52;;;;;;;5.80;3.75;;;;;;;;;;5008654;28;20066;-77
2022/08/01 07:56:18;;;;;;;7.10;3.92;;;;;;;;;;5008659;28;20030;-78
2022/08/01 07:58:43;;;;;;;8.18;3.83;;;;;;;;;;5008437;28;20500;-79
2022/08/01 08:01:08;;;;;;;6.53;3.80;;;;;;;;;;5008499;28;20116;-77
2022/08/01 08:03:34;;;;;;;9.55;3.42;;;;;;;;;;5008007;28;20480;-78
2022/08/01 08:05:59;;;;;;;8.23;3.60;;;;;;;;;;5007177;28;20053;-78
2022/08/01 08:08:25;;;;;;;6.32;3.58;;;;;;;;;;5008424;28;20034;-77
2022/08/01 08:10:50;;;;;;;10.15;3.90;;;;;;;;;;5008468;28;20371;-78
2022/08/01 08:13:16;;;;;;;4.90;3.25;;;;;;;;;;5008282;28;20168;-78
2022/08/01 08:15:41;;;;;;;6.63;3.75;;;;;;;;;;5007002;28;20136;-77
2022/08/01 08:18:07;;;;;;;6.68;3.47;;;;;;;;;;5006988;28;20050;-78
2022/08/01 08:20:32;;;;;;;9.55;3.63;;;;;;;;;;5008266;28;20018;-78
2022/08/01 08:22:58;;;;;;;12.38;3.70;;;;;;;;;;5008079;28;20113;-77
2022/08/01 08:25:25;;;;;;;6.25;3.10;;;;;;;;;;5008105;28;20038;-78
2022/08/01 08:27:50;;;;;;;11.48;3.50;;;;;;;;;;5007006;28;20026;-77
2022/08/01 08:30:16;;;;;;;7.43;3.45;;;;;;;;;;5007994;28;20542;-77
2022/08/01 08:32:42;;;;;;;5.93;3.20;;;;;;;;;;5008276;28;20025;-78
2022/08/01 08:35:07;;;;;;;8.55;3.35;;;;;;;;;;5007654;28;20482;-77
2022/08/01 08:37:37;;;;;;;6.90;3.25;;;;;;;;;;5007950;28;20021;-78
2022/08/01 08:40:04;;;;;;;11.43;3.20;;;;;;;;;;5008098;28;20041;-78
2022/08/01 08:42:29;;;;;;;5.30;3.20;;;;;;;;;;5007982;28;20064;-78
2022/08/01 08:44:55;;;;;;;6.07;3.20;;;;;;;;;;5008010;28;20030;-79
2022/08/01 08:47:22;;;;;;;6.90;3.42;;;;;;;;;;5007971;28;20026;-78
2022/08/01 08:49:55;;;;;;;6.00;3.00;;;;;;;;;;5007986;28;20021;-78
2022/08/01 08:52:21;;;;;;;6.57;3.38;;;;;;;;;;5007653;28;20029;-79
2022/08/01 08:54:48;;;;;;;5.45;2.80;;;;;;;;;;5007567;28;20132;-79
2022/08/01 08:57:15;;;;;;;8.90;3.60;;;;;;;;;;5006417;28;20045;-79
2022/08/01 08:59:42;;;;;;;9.65;3.47;;;;;;;;;;5007819;28;20026;-79
2022/08/01 09:02:09;;;;;;;7.97;3.10;;;;;;;;;;5007928;28;20108;-79
2022/08/01 09:04:36;;;;;;;7.63;3.50;;;;;;;;;;5007372;28;20046;-79
2022/08/01 09:07:04;;;;;;;4.40;3.10;;;;;;;;;;5007540;28;20033;-79
2022/08/01 09:09:29;;;;;;;7.57;3.40;;;;;;;;;;5007531;28;20488;-79
2022/08/01 09:11:55;;;;;;;6.32;3.35;;;;;;;;;;5007461;28;20466;-76
2022/08/01 09:14:27;;;;;;;7.38;3.47;;;;;;;;;;5007200;28;20073;-78
2022/08/01 09:17:01;;;;;;;4.88;3.30;;;;;;;;;;5007591;28;20034;-77
2022/08/01 09:19:38;;;;;;;7.40;3.20;;;;;;;;;;5006960;28;20375;-76
2022/08/01 09:22:06;;;;;;;7.68;3.70;;;;;;;;;;5007363;28;20022;-76
2022/08/01 09:24:33;;;;;;;7.20;3.17;;;;;;;;;;5007235;28;20072;-76
2022/08/01 09:27:00;;;;;;;12.93;3.47;;;;;;;;;;5007295;28;20113;-76
2022/08/01 09:29:29;;;;;;;5.13;3.17;;;;;;;;;;5006018;28;20102;-76
2022/08/01 09:31:57;;;;;;;6.00;3.75;;;;;;;;;;5007301;28;20167;-76
2022/08/01 09:34:26;;;;;;;8.35;3.60;;;;;;;;;;5007089;28;20034;-76
2022/08/01 09:36:55;;;;;;;5.90;3.50;;;;;;;;;;5007427;28;20041;-77
2022/08/01 09:39:28;;;;;;;8.07;3.50;;;;;;;;;;5007258;28;20045;-79
2022/08/01 09:41:58;;;;;;;8.05;3.90;;;;;;;;;;5007181;28;20034;-76
2022/08/01 09:44:43;;;;;;;8.30;3.67;;;;;;;;;;5006969;28;20014;-77
2022/08/01 09:47:09;;;;;;;8.45;4.00;;;;;;;;;;5007045;28;20026;-78
2022/08/01 09:49:37;;;;;;;6.63;3.65;;;;;;;;;;5007209;28;20026;-76
2022/08/01 09:52:12;;;;;;;11.32;3.85;;;;;;;;;;5007036;28;20026;-76
2022/08/01 09:54:38;;;;;;;6.18;3.60;;;;;;;;;;5006952;28;20164;-76
2022/08/01 09:57:14;;;;;;;6.55;3.80;;;;;;;;;;5007174;28;20109;-77
2022/08/01 09:59:43;;;;;;;8.02;3.65;;;;;;;;;;5006964;28;20037;-76
2022/08/01 10:02:15;;;;;;;8.48;3.83;;;;;;;;;;5006741;28;20034;-76
2022/08/01 10:04:51;;;;;;;8.20;4.15;;;;;;;;;;5005268;28;20054;-76
2022/08/01 10:07:17;;;;;;;12.25;3.90;;;;;;;;;;5006772;28;20034;-76
2022/08/01 10:09:43;;;;;;;6.65;3.45;;;;;;;;;;5006936;28;20057;-77
2022/08/01 10:12:11;;;;;;;7.88;3.55;;;;;;;;;;5006865;28;20026;-77
2022/08/01 10:14:38;;;;;;;8.15;3.83;;;;;;;;;;5006468;28;20086;-76
2022/08/01 10:17:07;;;;;;;8.68;3.72;;;;;;;;;;5006820;28;20034;-76
2022/08/01 10:19:35;;;;;;;7.40;3.70;;;;;;;;;;5006657;28;20037;-78
2022/08/01 10:22:04;;;;;;;5.20;3.42;;;;;;;;;;5005179;28;20033;-78
2022/08/01 10:24:30;;;;;;;7.20;3.90;;;;;;;;;;5005177;28;20497;-77
2022/08/01 10:27:02;;;;;;;7.22;3.63;;;;;;;;;;5006788;28;20029;-78
2022/08/01 10:29:30;;;;;;;5.85;3.40;;;;;;;;;;5006572;28;20630;-78
2022/08/01 10:31:56;;;;;;;6.85;3.30;;;;;;;;;;5007631;28;20030;-79
2022/08/01 10:34:22;;;;;;;8.95;3.72;;;;;;;;;;5008397;28;20030;-79
2022/08/01 10:36:48;;;;;;;6.00;3.28;;;;;;;;;;5009619;28;20371;-79
2022/08/01 10:39:14;;;;;;;12.02;3.88;;;;;;;;;;5009699;28;20532;-79
2022/08/01 10:41:40;;;;;;;8.38;3.85;;;;;;;;;;5009893;28;20033;-79
2022/08/01 10:44:09;;;;;;;6.78;3.47;;;;;;;;;;5009782;28;20037;-79
2022/08/01 10:46:39;;;;;;;5.68;3.85;;;;;;;;;;5009924;28;20029;-79
2022/08/01 10:49:10;;;;;;;5.35;3.45;;;;;;;;;;5009874;28;20022;-79
2022/08/01 10:51:38;;;;;;;5.28;3.60;;;;;;;;;;5009581;28;20475;-79
2022/08/01 10:54:06;;;;;;;6.47;3.60;;;;;;;;;;5009462;28;20026;-78
2022/08/01 10:56:59;;;;;;;5.05;3.35;;;;;;;;;;5008413;28;20034;-78
2022/08/01 10:59:27;;;;;;;6.25;3.58;;;;;;;;;;5010834;28;20034;-78
2022/08/01 11:02:01;;;;;;;8.80;3.95;;;;;;;;;;5009628;28;20585;-78
2022/08/01 11:05:07;;;;;;;5.65;3.67;;;;;;;;;;5008880;28;20411;-77
2022/08/01 11:07:45;;;;;;;9.38;3.70;;;;;;;;;;5010945;28;20049;-78
2022/08/01 11:10:21;;;;;;;6.32;3.67;;;;;;;;;;5009427;28;20022;-79
2022/08/01 11:12:47;;;;;;;7.22;3.75;;;;;;;;;;5009212;28;20041;-77
2022/08/01 11:15:12;;;;;;;8.98;3.40;;;;;;;;;;5009062;28;20037;-79
2022/08/01 11:17:49;;;;;;;5.82;3.53;;;;;;;;;;5009269;28;20105;-78
2022/08/01 11:20:17;;;;;;;7.47;3.90;;;;;;;;;;5009272;28;20565;-78
2022/08/01 11:23:01;;;;;;;6.00;3.63;;;;;;;;;;5009226;28;20071;-78
2022/08/01 11:25:35;;;;;;;7.85;3.70;;;;;;;;;;5008978;28;20692;-78
2022/08/01 11:28:13;;;;;;;6.05;3.60;;;;;;;;;;5009064;28;20458;-77
2022/08/01 11:30:39;;;;;;;5.72;3.35;;;;;;;;;;5007696;28;20033;-77
2022/08/01 11:33:06;;;;;;;5.88;3.40;;;;;;;;;;5008940;28;20086;-80
2022/08/01 11:35:32;;;;;;;4.50;3.22;;;;;;;;;;5008867;28;20045;-79
2022/08/01 11:38:28;;;;;;;4.90;3.25;;;;;;;;;;5008931;28;20053;-78
2022/08/01 11:41:13;;;;;;;6.38;3.30;;;;;;;;;;5008925;28;20026;-78
2022/08/01 11:44:01;;;;;;;7.28;3.58;;;;;;;;;;5008282;28;20026;-79
2022/08/01 11:47:09;;;;;;;6.50;3.40;;;;;;;;;;5008833;28;20048;-79
2022/08/01 11:49:38;;;;;;;5.85;3.65;;;;;;;;;;5027675;28;20060;-78
2022/08/01 11:52:10;;;;;;;7.20;3.60;;;;;;;;;;5008827;28;20026;-77
2022/08/01 11:54:42;;;;;;;6.47;3.60;;;;;;;;;;5008578;28;20034;-78
2022/08/01 11:57:23;;;;;;;5.60;3.42;;;;;;;;;;5007608;28;20045;-78
2022/08/01 11:59:50;;;;;;;5.38;3.10;;;;;;;;;;5008812;28;20099;-77
2022/08/01 12:02:31;;;;;;;5.25;3.00;;;;;;;;;;5008702;28;20021;-77
2022/08/01 12:04:58;;;;;;;6.88;2.90;;;;;;;;;;5008054;28;20119;-78
2022/08/01 12:07:25;;;;;;;5.35;3.10;;;;;;;;;;5008263;28;20526;-77
2022/08/01 12:10:02;;;;;;;5.40;3.50;;;;;;;;;;5008616;28;20049;-76
2022/08/01 12:12:29;;;;;;;5.63;3.65;;;;;;;;;;5008509;28;20512;-76
2022/08/01 12:15:00;;;;;;;6.68;3.70;;;;;;;;;;5008313;28;20034;-79
2022/08/01 12:17:41;;;;;;;6.30;3.33;;;;;;;;;;5008894;28;20248;-78
2022/08/01 12:20:19;;;;;;;7.88;3.17;;;;;;;;;;5008320;28;20034;-78
2022/08/01 12:22:44;;;;;;;4.88;2.80;;;;;;;;;;5006829;28;20030;-78
2022/08/01 12:25:13;;;;;;;5.38;3.00;;;;;;;;;;5008078;28;20053;-77
2022/08/01 12:27:40;;;;;;;4.43;3.00;;;;;;;;;;5008620;28;20040;-78
2022/08/01 12:30:13;;;;;;;5.13;3.10;;;;;;;;;;5008202;28;20033;-76
2022/08/01 12:32:40;;;;;;;5.95;3.28;;;;;;;;;;5008121;28;20104;-77
2022/08/01 12:35:14;;;;;;;4.68;3.00;;;;;;;;;;5007923;28;20045;-77
2022/08/01 12:37:43;;;;;;;4.53;2.70;;;;;;;;;;5007847;28;20513;-78
2022/08/01 12:40:17;;;;;;;4.22;2.80;;;;;;;;;;5008114;28;20022;-77
2022/08/01 12:42:48;;;;;;;4.10;2.55;;;;;;;;;;5008000;28;20021;-76
2022/08/01 12:45:32;;;;;;;4.03;2.47;;;;;;;;;;5007700;28;20022;-77
2022/08/01 12:47:59;;;;;;;4.25;2.30;;;;;;;;;;5008195;28;20025;-78
2022/08/01 12:50:28;;;;;;;4.85;2.30;;;;;;;;;;5007874;28;20026;-77
2022/08/01 12:52:54;;;;;;;4.25;2.22;;;;;;;;;;5007626;28;20029;-78
2022/08/01 12:55:24;;;;;;;7.32;2.28;;;;;;;;;;5006612;28;20547;-77
2022/08/01 12:58:12;;;;;;;5.20;2.58;;;;;;;;;;5007542;28;20489;-78
2022/08/01 13:00:41;;;;;;;5.00;2.40;;;;;;;;;;5007722;28;20509;-77
2022/08/01 13:03:09;;;;;;;6.18;2.60;;;;;;;;;;5007587;28;20106;-78
2022/08/01 13:06:12;;;;;;;3.90;2.40;;;;;;;;;;5007516;28;20036;-77
2022/08/01 13:08:38;;;;;;;6.60;2.17;;;;;;;;;;5013074;28;20147;-79
2022/08/01 13:11:09;;;;;;;5.47;2.03;;;;;;;;;;5007662;28;20049;-79
2022/08/01 13:13:39;;;;;;;4.43;2.50;;;;;;;;;;5007458;28;20026;-78
2022/08/01 13:16:05;;;;;;;4.70;2.27;;;;;;;;;;5007349;28;20043;-79
2022/08/01 13:18:32;;;;;;;2.92;1.95;;;;;;;;;;5007465;28;20374;-79
2022/08/01 13:21:11;;;;;;;4.82;2.15;;;;;;;;;;5007449;28;20037;-79
2022/08/01 13:23:38;;;;;;;3.78;2.17;;;;;;;;;;5007547;28;20574;-79
2022/08/01 13:26:04;;;;;;;2.42;1.85;;;;;;;;;;5006138;28;20560;-79
2022/08/01 13:28:31;;;;;;;4.28;2.08;;;;;;;;;;5007405;28;20791;-79
2022/08/01 13:30:59;;;;;;;2.83;1.98;;;;;;;;;;5005883;28;20486;-79
2022/08/01 13:33:26;;;;;;;4.50;2.35;;;;;;;;;;5007091;28;20413;-77
2022/08/01 13:35:55;;;;;;;4.07;2.47;;;;;;;;;;5007029;28;20629;-78
2022/08/01 13:41:06;;;;;;;4.03;2.30;;;;;;;;;;5007611;28;20401;-76
2022/08/01 13:43:32;;;;;;;3.30;2.10;;;;;;;;;;5007303;28;20038;-77
2022/08/01 13:45:58;;;;;;;3.22;2.30;;;;;;;;;;5006858;28;20026;-77
2022/08/01 13:48:23;;;;;;;8.43;2.63;;;;;;;;;;5007101;28;20022;-78
2022/08/01 13:50:48;;;;;;;5.22;2.25;;;;;;;;;;5006762;28;20108;-76
2022/08/01 13:53:14;;;;;;;4.47;2.47;;;;;;;;;;5005611;28;20047;-77
2022/08/01 13:55:39;;;;;;;5.88;2.50;;;;;;;;;;5005413;28;20034;-78
2022/08/01 13:58:06;;;;;;;5.20;2.50;;;;;;;;;;5007285;28;20375;-78
2022/08/01 14:00:31;;;;;;;5.82;2.50;;;;;;;;;;5007022;28;20054;-79
2022/08/01 14:02:57;;;;;;;5.13;2.40;;;;;;;;;;5006815;28;20438;-78
2022/08/01 14:05:22;;;;;;;4.43;2.50;;;;;;;;;;5007128;28;20037;-79
2022/08/01 14:07:48;;;;;;;5.10;2.30;;;;;;;;;;5010038;28;20470;-78
2022/08/01 14:10:13;;;;;;;4.63;2.30;;;;;;;;;;5010227;28;20121;-76
2022/08/01 14:12:39;;;;;;;4.10;2.38;;;;;;;;;;5010195;28;20030;-77
2022/08/01 14:15:05;;;;;;;4.80;2.38;;;;;;;;;;5010348;28;20030;-78
2022/08/01 14:17:30;;;;;;;4.57;2.35;;;;;;;;;;5010063;28;20090;-78
2022/08/01 14:19:56;;;;;;;6.78;2.67;;;;;;;;;;5010193;28;20026;-79
2022/08/01 14:22:21;;;;;;;6.90;2.53;;;;;;;;;;5008711;28;20030;-79
2022/08/01 14:24:48;;;;;;;4.50;2.42;;;;;;;;;;5009965;28;20605;-79
2022/08/01 14:27:14;;;;;;;4.10;2.80;;;;;;;;;;5009873;28;20080;-79
2022/08/01 14:29:39;;;;;;;7.18;2.70;;;;;;;;;;5010049;28;20022;-79
2022/08/01 14:32:05;;;;;;;4.18;2.47;;;;;;;;;;5008756;28;20018;-79
2022/08/01 14:34:31;;;;;;;4.72;2.42;;;;;;;;;;5010169;28;20034;-79
2022/08/01 14:36:56;;;;;;;6.78;2.20;;;;;;;;;;5008260;28;20067;-79
2022/08/01 14:39:21;;;;;;;4.55;2.58;;;;;;;;;;5009907;28;20058;-79
2022/08/01 14:41:47;;;;;;;4.18;2.30;;;;;;;;;;5009845;28;20416;-77
2022/08/01 14:44:12;;;;;;;4.50;2.10;;;;;;;;;;5009654;28;20036;-78
2022/08/01 14:46:38;;;;;;;5.90;2.30;;;;;;;;;;5009508;28;20022;-77
2022/08/01 14:49:03;;;;;;;3.35;2.17;;;;;;;;;;5009853;28;20079;-77
2022/08/01 14:51:32;;;;;;;10.68;2.35;;;;;;;;;;5009841;28;20029;-78
2022/08/01 14:53:58;;;;;;;6.50;2.40;;;;;;;;;;5009689;28;20021;-78